createdAt,value
2018-05-02T00:00:18.285Z,100983
2018-05-02T00:02:46.456Z,100985
2018-05-02T00:05:14.650Z,100996
2018-05-02T00:07:42.809Z,100985
2018-05-02T00:10:11.015Z,100990
2018-05-02T00:12:39.194Z,100995
2018-05-02T00:15:07.353Z,101007
2018-05-02T00:17:35.727Z,100999
2018-05-02T00:20:03.878Z,101010
2018-05-02T00:22:32.004Z,100997
2018-05-02T00:25:00.125Z,101004
2018-05-02T00:27:28.330Z,101003
2018-05-02T00:29:57.606Z,100998
2018-05-02T00:32:25.762Z,101003
2018-05-02T00:34:53.921Z,100995
2018-05-02T00:37:22.081Z,100999
2018-05-02T00:39:50.994Z,100995
2018-05-02T00:42:19.148Z,100998
2018-05-02T00:44:48.829Z,100999
2018-05-02T00:47:17.016Z,100990
2018-05-02T00:49:45.920Z,100994
2018-05-02T00:52:14.829Z,101002
2018-05-02T00:54:42.982Z,101002
2018-05-02T00:57:11.926Z,100999
2018-05-02T00:59:40.100Z,101004
2018-05-02T01:02:08.244Z,101008
2018-05-02T01:04:36.410Z,101003
2018-05-02T01:07:04.594Z,101005
2018-05-02T01:09:32.715Z,101007
2018-05-02T01:12:00.836Z,100999
2018-05-02T01:14:29.030Z,101009
2018-05-02T01:16:57.190Z,101005
2018-05-02T01:19:25.305Z,101020
2018-05-02T01:21:53.472Z,101026
2018-05-02T01:24:21.605Z,101023
2018-05-02T01:26:49.749Z,101023
2018-05-02T01:29:18.663Z,101015
2018-05-02T01:31:46.929Z,101018
2018-05-02T01:34:15.086Z,101019
2018-05-02T01:36:48.405Z,101031
2018-05-02T01:39:16.670Z,101020
2018-05-02T01:41:44.800Z,101036
2018-05-02T01:44:12.921Z,101032
2018-05-02T01:46:41.094Z,101038
2018-05-02T01:49:24.247Z,101047
2018-05-02T01:51:52.413Z,101040
2018-05-02T01:54:20.572Z,101038
2018-05-02T01:56:48.724Z,101041
2018-05-02T01:59:17.362Z,101040
2018-05-02T02:01:45.511Z,101039
2018-05-02T02:04:13.686Z,101041
2018-05-02T02:06:41.847Z,101041
2018-05-02T02:09:10.002Z,101041
2018-05-02T02:11:38.405Z,101043
2018-05-02T02:14:06.536Z,101028
2018-05-02T02:16:35.420Z,101037
2018-05-02T02:19:04.329Z,101027
2018-05-02T02:21:32.481Z,101030
2018-05-02T02:24:01.395Z,101022
2018-05-02T02:26:29.552Z,101022
2018-05-02T02:28:58.437Z,101017
2018-05-02T02:31:27.312Z,101018
2018-05-02T02:33:55.667Z,101015
2018-05-02T02:36:23.901Z,101014
2018-05-02T02:38:52.024Z,101010
2018-05-02T02:41:20.281Z,101008
2018-05-02T02:43:48.430Z,101018
2018-05-02T02:46:16.577Z,101024
2018-05-02T02:48:45.491Z,101021
2018-05-02T02:51:13.618Z,101021
2018-05-02T02:53:42.559Z,101006
2018-05-02T02:56:10.692Z,101009
2018-05-02T02:58:39.593Z,101009
2018-05-02T03:01:08.549Z,101015
2018-05-02T03:03:36.681Z,101013
2018-05-02T03:06:04.872Z,101014
2018-05-02T03:08:33.113Z,101016
2018-05-02T03:11:01.272Z,101011
2018-05-02T03:13:30.157Z,101024
2018-05-02T03:15:58.380Z,101026
2018-05-02T03:18:26.525Z,101018
2018-05-02T03:20:54.728Z,101018
2018-05-02T03:23:22.901Z,101021
2018-05-02T03:25:51.050Z,101021
2018-05-02T03:28:19.205Z,101027
2018-05-02T03:30:47.340Z,101016
2018-05-02T03:33:15.501Z,101024
2018-05-02T03:35:43.669Z,101019
2018-05-02T03:38:11.828Z,101020
2018-05-02T03:40:39.956Z,101018
2018-05-02T03:43:08.873Z,101025
2018-05-02T03:45:37.017Z,101017
2018-05-02T03:48:05.925Z,101021
2018-05-02T03:50:34.141Z,101022
2018-05-02T03:53:02.328Z,101025
2018-05-02T03:55:30.534Z,101021
2018-05-02T03:57:58.758Z,101009
2018-05-02T04:00:44.783Z,101013
2018-05-02T04:03:30.902Z,101018
2018-05-02T04:09:04.424Z,101013
2018-05-02T04:11:32.630Z,101015
2018-05-02T04:14:00.760Z,101026
2018-05-02T04:16:28.940Z,101018
2018-05-02T04:18:57.130Z,101030
2018-05-02T04:21:25.282Z,101023
2018-05-02T04:23:53.440Z,101033
2018-05-02T04:26:22.386Z,101024
2018-05-02T04:28:50.524Z,101023
2018-05-02T04:31:18.642Z,101027
2018-05-02T04:33:46.809Z,101033
2018-05-02T04:36:14.944Z,101045
2018-05-02T04:38:43.135Z,101038
2018-05-02T04:41:11.345Z,101050
2018-05-02T04:46:40.122Z,101064
2018-05-02T04:49:08.269Z,101065
2018-05-02T04:51:36.445Z,101066
2018-05-02T04:54:04.561Z,101065
2018-05-02T04:56:32.697Z,101069
2018-05-02T04:59:00.839Z,101061
2018-05-02T05:01:29.748Z,101062
2018-05-02T05:03:57.869Z,101071
2018-05-02T05:06:25.994Z,101076
2018-05-02T05:08:54.216Z,101074
2018-05-02T05:11:22.333Z,101082
2018-05-02T05:13:51.241Z,101099
2018-05-02T05:16:19.365Z,101087
2018-05-02T05:18:47.494Z,101091
2018-05-02T05:21:15.658Z,101092
2018-05-02T05:23:43.839Z,101095
2018-05-02T05:26:12.004Z,101096
2018-05-02T05:28:40.132Z,101099
2018-05-02T05:31:08.273Z,101095
2018-05-02T05:33:36.423Z,101101
2018-05-02T05:36:04.602Z,101114
2018-05-02T05:38:32.729Z,101103
2018-05-02T05:41:00.865Z,101111
2018-05-02T05:43:29.036Z,101112
2018-05-02T05:45:57.188Z,101112
2018-05-02T05:48:25.308Z,101114
2018-05-02T05:50:53.452Z,101108
2018-05-02T05:53:21.611Z,101115
2018-05-02T05:55:49.741Z,101120
2018-05-02T05:58:18.653Z,101119
2018-05-02T06:00:46.846Z,101117
2018-05-02T06:03:15.034Z,101113
2018-05-02T06:05:43.164Z,101109
2018-05-02T06:08:12.088Z,101121
2018-05-02T06:10:40.269Z,101122
2018-05-02T06:13:08.443Z,101117
2018-05-02T06:15:36.592Z,101122
2018-05-02T06:18:04.785Z,101126
2018-05-02T06:20:32.938Z,101127
2018-05-02T06:23:01.067Z,101129
2018-05-02T06:25:29.204Z,101121
2018-05-02T06:27:57.354Z,101129
2018-05-02T06:30:25.551Z,101128
2018-05-02T06:32:53.673Z,101140
2018-05-02T06:35:22.560Z,101139
2018-05-02T06:37:51.580Z,101139
2018-05-02T06:40:19.612Z,101141
2018-05-02T06:42:47.744Z,101136
2018-05-02T06:45:15.889Z,101138
2018-05-02T06:47:44.070Z,101133
2018-05-02T06:50:12.291Z,101135
2018-05-02T06:52:40.353Z,101133
2018-05-02T06:55:08.514Z,101134
2018-05-02T06:57:36.662Z,101127
2018-05-02T07:00:04.789Z,101111
2018-05-02T07:02:32.964Z,101112
2018-05-02T07:05:01.922Z,101114
2018-05-02T07:07:30.075Z,101106
2018-05-02T07:09:58.199Z,101109
2018-05-02T07:12:26.375Z,101109
2018-05-02T07:14:55.303Z,101105
2018-05-02T07:17:23.445Z,101112
2018-05-02T07:19:52.356Z,101114
2018-05-02T07:22:20.497Z,101117
2018-05-02T07:24:48.624Z,101114
2018-05-02T07:27:16.749Z,101118
2018-05-02T07:29:45.705Z,101126
2018-05-02T07:32:13.823Z,101115
2018-05-02T07:34:42.745Z,101112
2018-05-02T07:37:10.911Z,101109
2018-05-02T07:39:39.033Z,101118
2018-05-02T07:42:07.167Z,101114
2018-05-02T07:44:35.334Z,101113
2018-05-02T07:47:03.458Z,101109
2018-05-02T07:49:31.620Z,101099
2018-05-02T07:51:59.731Z,101113
2018-05-02T07:54:27.854Z,101104
2018-05-02T07:56:56.022Z,101112
2018-05-02T07:59:24.173Z,101108
2018-05-02T08:01:52.342Z,101110
2018-05-02T08:04:20.501Z,101110
2018-05-02T08:06:48.640Z,101103
2018-05-02T08:09:16.764Z,101114
2018-05-02T08:11:44.905Z,101108
2018-05-02T08:14:13.041Z,101104
2018-05-02T08:16:41.196Z,101103
2018-05-02T08:19:09.375Z,101105
2018-05-02T08:21:37.530Z,101104
2018-05-02T08:24:05.686Z,101092
2018-05-02T08:26:33.840Z,101100
2018-05-02T08:29:02.014Z,101092
2018-05-02T08:31:30.143Z,101082
2018-05-02T08:33:58.294Z,101083
2018-05-02T08:36:26.416Z,101077
2018-05-02T08:38:55.382Z,101073
2018-05-02T08:41:23.679Z,101075
2018-05-02T08:43:52.602Z,101083
2018-05-02T08:46:20.724Z,101079
2018-05-02T08:48:48.918Z,101072
2018-05-02T08:51:17.804Z,101083
2018-05-02T08:53:46.763Z,101078
2018-05-02T08:56:14.943Z,101090
2018-05-02T08:58:43.075Z,101092
2018-05-02T09:01:11.233Z,101084
2018-05-02T09:03:39.463Z,101076
2018-05-02T09:06:07.553Z,101079
2018-05-02T09:08:36.460Z,101086
2018-05-02T09:11:05.357Z,101090
2018-05-02T09:13:33.512Z,101076
2018-05-02T09:16:02.398Z,101076
2018-05-02T09:18:31.329Z,101077
2018-05-02T09:20:59.470Z,101069
2018-05-02T09:23:28.368Z,101071
2018-05-02T09:25:56.554Z,101069
2018-05-02T09:28:24.694Z,101056
2018-05-02T09:30:53.638Z,101059
2018-05-02T09:33:21.780Z,101060
2018-05-02T09:35:49.930Z,101056
2018-05-02T09:38:18.870Z,101050
2018-05-02T09:40:47.017Z,101049
2018-05-02T09:43:15.206Z,101056
2018-05-02T09:45:43.378Z,101049
2018-05-02T09:48:11.530Z,101044
2018-05-02T09:50:39.676Z,101043
2018-05-02T09:53:07.801Z,101036
2018-05-02T09:55:35.939Z,101039
2018-05-02T09:58:04.098Z,101032
2018-05-02T10:00:33.036Z,101035
2018-05-02T10:03:01.148Z,101035
2018-05-02T10:05:29.297Z,101036
2018-05-02T10:07:57.440Z,101034
2018-05-02T10:10:25.564Z,101025
2018-05-02T10:12:53.733Z,101018
2018-05-02T10:15:21.856Z,101019
2018-05-02T10:17:50.029Z,101026
2018-05-02T10:20:18.148Z,101015
2018-05-02T10:22:46.307Z,101015
2018-05-02T10:25:14.449Z,101015
2018-05-02T10:27:42.568Z,101023
2018-05-02T10:30:10.705Z,101012
2018-05-02T10:32:38.856Z,101010
2018-05-02T10:35:07.029Z,101008
2018-05-02T10:37:35.217Z,101009
2018-05-02T10:40:03.402Z,101001
2018-05-02T10:42:31.541Z,101003
2018-05-02T10:44:59.688Z,101003
2018-05-02T10:47:27.807Z,100992
2018-05-02T10:54:24.894Z,100996
2018-05-02T10:56:53.056Z,100996
2018-05-02T10:59:21.270Z,100989
2018-05-02T11:01:49.427Z,100992
2018-05-02T11:04:17.587Z,100985
2018-05-02T11:06:45.781Z,100999
2018-05-02T11:09:14.011Z,100982
2018-05-02T11:11:42.184Z,100985
2018-05-02T11:14:10.381Z,100989
2018-05-02T11:16:38.551Z,100988
2018-05-02T11:19:06.718Z,100995
2018-05-02T11:21:34.901Z,101000
2018-05-02T11:24:03.060Z,101009
2018-05-02T11:26:31.219Z,101001
2018-05-02T11:28:59.394Z,101000
2018-05-02T11:31:27.555Z,100991
2018-05-02T11:33:55.727Z,100997
2018-05-02T11:36:23.905Z,100999
2018-05-02T11:38:52.062Z,100988
2018-05-02T11:41:20.994Z,100997
2018-05-02T11:43:49.223Z,101005
2018-05-02T11:46:17.466Z,100991
2018-05-02T11:48:45.591Z,100986
2018-05-02T11:51:13.755Z,100992
2018-05-02T11:53:41.934Z,100982
2018-05-02T11:56:10.095Z,100972
2018-05-02T11:58:38.283Z,100974
2018-05-02T12:01:06.446Z,100979
2018-05-02T12:03:34.719Z,100983
2018-05-02T12:06:02.842Z,100984
2018-05-02T12:08:30.995Z,100962
2018-05-02T12:10:59.166Z,100960
2018-05-02T12:13:27.345Z,100958
2018-05-02T12:15:55.503Z,100957
2018-05-02T12:18:23.663Z,100955
2018-05-02T12:20:51.834Z,100949
2018-05-02T12:23:20.001Z,100949
2018-05-02T12:25:48.210Z,100935
2018-05-02T12:28:16.367Z,100940
2018-05-02T12:30:44.570Z,100926
2018-05-02T12:33:12.753Z,100929
2018-05-02T12:35:40.906Z,100926
2018-05-02T12:38:09.204Z,100915
2018-05-02T12:40:37.374Z,100914
2018-05-02T12:43:05.579Z,100911
2018-05-02T12:45:34.503Z,100896
2018-05-02T12:48:02.675Z,100903
2018-05-02T12:50:30.883Z,100889
2018-05-02T12:52:59.044Z,100895
2018-05-02T12:55:27.207Z,100884
2018-05-02T12:57:55.394Z,100882
2018-05-02T13:00:23.618Z,100875
2018-05-02T13:02:51.774Z,100865
2018-05-02T13:05:20.709Z,100847
2018-05-02T13:07:48.897Z,100849
2018-05-02T13:10:17.056Z,100838
2018-05-02T13:12:45.219Z,100844
2018-05-02T13:15:13.415Z,100835
2018-05-02T13:17:41.582Z,100835
2018-05-02T13:20:09.734Z,100838
2018-05-02T13:22:37.918Z,100848
2018-05-02T13:25:06.809Z,100848
2018-05-02T13:27:34.966Z,100845
2018-05-02T13:30:03.162Z,100837
2018-05-02T13:32:31.326Z,100814
2018-05-02T13:34:59.499Z,100810
2018-05-02T13:37:27.681Z,100803
2018-05-02T13:39:55.839Z,100802
2018-05-02T13:42:23.995Z,100794
2018-05-02T13:44:52.162Z,100795
2018-05-02T13:47:20.314Z,100800
2018-05-02T13:49:49.259Z,100801
2018-05-02T13:52:17.442Z,100792
2018-05-02T13:54:45.595Z,100791
2018-05-02T13:57:13.782Z,100784
2018-05-02T13:59:41.943Z,100786
2018-05-02T14:02:10.099Z,100772
2018-05-02T14:04:38.263Z,100768
2018-05-02T14:07:06.418Z,100765
2018-05-02T14:09:35.372Z,100767
2018-05-02T14:12:03.480Z,100771
2018-05-02T14:14:32.407Z,100774
2018-05-02T14:17:00.548Z,100765
2018-05-02T14:19:29.438Z,100753
2018-05-02T14:21:58.324Z,100756
2018-05-02T14:24:27.221Z,100760
2018-05-02T14:26:56.111Z,100761
2018-05-02T14:29:25.025Z,100752
2018-05-02T14:31:53.186Z,100748
2018-05-02T14:34:21.325Z,100747
2018-05-02T14:36:49.436Z,100751
2018-05-02T14:39:17.554Z,100754
2018-05-02T14:41:45.695Z,100756
2018-05-02T14:44:13.826Z,100755
2018-05-02T14:46:42.705Z,100757
2018-05-02T14:49:10.842Z,100767
2018-05-02T14:51:39.010Z,100758
2018-05-02T14:54:07.128Z,100746
2018-05-02T14:56:35.290Z,100745
2018-05-02T14:59:03.444Z,100747
2018-05-02T15:01:31.637Z,100747
2018-05-02T15:03:59.715Z,100752
2018-05-02T15:06:28.628Z,100738
2018-05-02T15:08:56.783Z,100738
2018-05-02T15:11:25.681Z,100740
2018-05-02T15:13:54.604Z,100734
2018-05-02T15:16:22.775Z,100738
2018-05-02T15:18:50.893Z,100740
2018-05-02T15:21:19.009Z,100730
2018-05-02T15:23:47.151Z,100731
2018-05-02T15:26:16.029Z,100739
2018-05-02T15:28:44.173Z,100734
2018-05-02T15:31:12.435Z,100737
2018-05-02T15:33:40.562Z,100731
2018-05-02T15:36:09.458Z,100724
2018-05-02T15:38:38.407Z,100724
2018-05-02T15:41:06.539Z,100736
2018-05-02T15:43:34.699Z,100725
2018-05-02T15:46:02.870Z,100730
2018-05-02T15:48:31.075Z,100728
2018-05-02T15:50:59.207Z,100719
2018-05-02T15:53:28.100Z,100711
2018-05-02T15:55:57.025Z,100723
2018-05-02T15:58:25.167Z,100726
2018-05-02T16:00:54.058Z,100717
2018-05-02T16:03:22.209Z,100709
2018-05-02T16:05:50.366Z,100700
2018-05-02T16:08:18.502Z,100695
2018-05-02T16:10:46.632Z,100680
2018-05-02T16:13:14.780Z,100674
2018-05-02T16:15:42.892Z,100685
2018-05-02T16:18:11.810Z,100687
2018-05-02T16:20:40.008Z,100690
2018-05-02T16:23:08.132Z,100685
2018-05-02T16:25:37.013Z,100690
2018-05-02T16:28:05.940Z,100685
2018-05-02T16:30:34.139Z,100690
2018-05-02T16:33:02.985Z,100688
2018-05-02T16:35:31.136Z,100683
2018-05-02T16:38:00.033Z,100686
2018-05-02T16:40:28.922Z,100681
2018-05-02T16:42:57.853Z,100682
2018-05-02T16:45:26.022Z,100688
2018-05-02T16:47:54.186Z,100679
2018-05-02T16:50:22.333Z,100677
2018-05-02T16:52:50.489Z,100667
2018-05-02T16:55:19.402Z,100676
2018-05-02T16:57:47.530Z,100667
2018-05-02T17:00:15.668Z,100663
2018-05-02T17:02:43.783Z,100667
2018-05-02T17:05:11.906Z,100670
2018-05-02T17:07:40.283Z,100665
2018-05-02T17:10:08.333Z,100667
2018-05-02T17:12:36.490Z,100668
2018-05-02T17:15:05.408Z,100670
2018-05-02T17:17:33.557Z,100663
2018-05-02T17:20:02.448Z,100668
2018-05-02T17:22:31.361Z,100669
2018-05-02T17:24:59.506Z,100663
2018-05-02T17:27:28.434Z,100662
2018-05-02T17:29:56.576Z,100659
2018-05-02T17:32:25.490Z,100660
2018-05-02T17:34:53.612Z,100648
2018-05-02T17:37:21.767Z,100655
2018-05-02T17:39:49.926Z,100656
2018-05-02T17:42:18.105Z,100650
2018-05-02T17:44:46.302Z,100655
2018-05-02T17:47:14.466Z,100650
2018-05-02T17:49:42.585Z,100655
2018-05-02T17:52:10.697Z,100655
2018-05-02T17:54:38.819Z,100640
2018-05-02T17:57:07.738Z,100636
2018-05-02T17:59:35.872Z,100628
2018-05-02T18:02:04.781Z,100639
2018-05-02T18:04:32.945Z,100642
2018-05-02T18:07:01.061Z,100631
2018-05-02T18:09:29.210Z,100631
2018-05-02T18:11:57.364Z,100627
2018-05-02T18:14:25.484Z,100636
2018-05-02T18:16:53.626Z,100627
2018-05-02T18:19:21.744Z,100620
2018-05-02T18:21:49.902Z,100634
2018-05-02T18:24:18.082Z,100635
2018-05-02T18:26:46.237Z,100632
2018-05-02T18:29:14.397Z,100633
2018-05-02T18:31:42.590Z,100640
2018-05-02T18:34:10.725Z,100624
2018-05-02T18:36:38.853Z,100642
2018-05-02T18:39:06.990Z,100631
2018-05-02T18:41:35.168Z,100630
2018-05-02T18:44:03.295Z,100622
2018-05-02T18:46:32.186Z,100633
2018-05-02T18:49:01.107Z,100627
2018-05-02T18:51:29.233Z,100626
2018-05-02T18:53:57.353Z,100628
2018-05-02T18:56:25.533Z,100619
2018-05-02T18:58:53.675Z,100615
2018-05-02T19:01:21.869Z,100614
2018-05-02T19:03:50.019Z,100613
2018-05-02T19:06:18.179Z,100611
2018-05-02T19:08:47.161Z,100613
2018-05-02T19:11:16.102Z,100608
2018-05-02T19:13:49.841Z,100611
2018-05-02T19:16:18.035Z,100608
2018-05-02T19:18:52.664Z,100619
2018-05-02T19:21:21.605Z,100618
2018-05-02T19:23:49.813Z,100618
2018-05-02T19:26:23.590Z,100619
2018-05-02T19:28:51.758Z,100619
2018-05-02T19:34:23.103Z,100622
2018-05-02T19:36:51.287Z,100613
2018-05-02T19:39:19.423Z,100617
2018-05-02T19:44:52.484Z,100612
2018-05-02T19:47:20.646Z,100601
2018-05-02T19:49:48.811Z,100601
2018-05-02T19:55:18.247Z,100602
2018-05-02T19:57:46.421Z,100604
2018-05-02T20:00:20.092Z,100603
2018-05-02T20:02:53.922Z,100591
2018-05-02T20:05:22.080Z,100600
2018-05-02T20:07:50.248Z,100591
2018-05-02T20:10:24.103Z,100580
2018-05-02T20:12:57.899Z,100574
2018-05-02T20:15:26.054Z,100578
2018-05-02T20:17:54.214Z,100577
2018-05-02T20:20:22.358Z,100577
2018-05-02T20:22:50.555Z,100573
2018-05-02T20:25:18.767Z,100581
2018-05-02T20:27:46.872Z,100579
2018-05-02T20:30:15.031Z,100572
2018-05-02T20:32:43.956Z,100550
2018-05-02T20:35:12.087Z,100550
2018-05-02T20:37:40.266Z,100547
2018-05-02T20:40:09.161Z,100564
2018-05-02T20:42:38.093Z,100562
2018-05-02T20:45:06.261Z,100555
2018-05-02T20:47:34.380Z,100550
2018-05-02T20:50:02.505Z,100553
2018-05-02T20:52:30.711Z,100557
2018-05-02T20:54:58.896Z,100562
2018-05-02T20:57:26.978Z,100555
2018-05-02T20:59:55.141Z,100546
2018-05-02T21:02:23.286Z,100533
2018-05-02T21:04:51.409Z,100528
2018-05-02T21:07:20.323Z,100521
2018-05-02T21:09:48.436Z,100524
2018-05-02T21:12:16.557Z,100522
2018-05-02T21:14:44.735Z,100521
2018-05-02T21:17:12.876Z,100522
2018-05-02T21:19:41.761Z,100520
2018-05-02T21:22:10.690Z,100521
2018-05-02T21:24:38.845Z,100516
2018-05-02T21:27:06.988Z,100520
2018-05-02T21:29:35.134Z,100535
2018-05-02T21:32:03.302Z,100547
2018-05-02T21:34:31.481Z,100545
2018-05-02T21:36:59.606Z,100550
2018-05-02T21:39:27.770Z,100532
2018-05-02T21:41:55.908Z,100531
2018-05-02T21:44:24.062Z,100535
2018-05-02T21:46:52.217Z,100540
2018-05-02T21:49:20.342Z,100518
2018-05-02T21:51:48.492Z,100522
2018-05-02T21:54:16.718Z,100515
2018-05-02T21:56:44.838Z,100514
2018-05-02T21:59:12.989Z,100505
2018-05-02T22:01:41.163Z,100504
2018-05-02T22:04:09.308Z,100509
2018-05-02T22:06:37.440Z,100506
2018-05-02T22:09:05.606Z,100507
2018-05-02T22:11:33.732Z,100501
2018-05-02T22:14:01.908Z,100493
2018-05-02T22:16:30.035Z,100485
2018-05-02T22:18:58.148Z,100480
2018-05-02T22:21:26.300Z,100477
2018-05-02T22:23:55.238Z,100466
2018-05-02T22:26:23.390Z,100483
2018-05-02T22:28:51.586Z,100480
2018-05-02T22:31:19.721Z,100483
2018-05-02T22:33:47.837Z,100487
2018-05-02T22:36:15.986Z,100483
2018-05-02T22:38:44.110Z,100476
2018-05-02T22:41:13.025Z,100474
2018-05-02T22:43:41.172Z,100470
2018-05-02T22:46:10.103Z,100455
2018-05-02T22:48:38.347Z,100461
2018-05-02T22:51:06.464Z,100473
2018-05-02T22:53:34.583Z,100467
2018-05-02T22:56:02.732Z,100478
2018-05-02T22:58:30.883Z,100477
2018-05-02T23:00:59.042Z,100493
2018-05-02T23:03:27.210Z,100488
2018-05-02T23:05:55.389Z,100506
2018-05-02T23:08:23.537Z,100502
2018-05-02T23:10:51.689Z,100511
2018-05-02T23:13:20.600Z,100514
2018-05-02T23:15:48.750Z,100507
2018-05-02T23:18:17.659Z,100506
2018-05-02T23:20:46.573Z,100495
2018-05-02T23:23:14.698Z,100488
2018-05-02T23:25:42.846Z,100483
2018-05-02T23:28:10.996Z,100476
2018-05-02T23:30:39.201Z,100481
2018-05-02T23:33:07.325Z,100484
2018-05-02T23:35:35.505Z,100476
2018-05-02T23:38:03.632Z,100465
2018-05-02T23:40:32.540Z,100455
2018-05-02T23:43:01.482Z,100450
2018-05-02T23:45:29.739Z,100438
2018-05-02T23:47:57.869Z,100427
2018-05-02T23:50:26.801Z,100433
2018-05-02T23:52:54.932Z,100433
2018-05-02T23:55:23.813Z,100427
2018-05-02T23:57:51.948Z,100421
